createdAt,value
2019-04-22T00:00:41.272Z,11.70
2019-04-22T00:03:14.621Z,11.60
2019-04-22T00:06:00.472Z,11.27
2019-04-22T00:08:36.223Z,10.87
2019-04-22T00:11:23.986Z,10.77
2019-04-22T00:13:46.918Z,10.27
2019-04-22T00:16:22.631Z,9.73
2019-04-22T00:19:01.472Z,10.20
2019-04-22T00:21:19.462Z,8.57
2019-04-22T00:23:51.948Z,8.87
2019-04-22T00:26:23.931Z,8.17
2019-04-22T00:31:32.936Z,8.77
2019-04-22T00:34:03.189Z,7.13
2019-04-22T00:36:35.221Z,7.43
2019-04-22T00:39:15.860Z,7.50
2019-04-22T00:41:43.923Z,8.63
2019-04-22T00:44:22.251Z,9.73
2019-04-22T00:46:45.684Z,10.17
2019-04-22T00:50:03.746Z,11.33
2019-04-22T00:51:52.049Z,10.60
2019-04-22T00:54:15.678Z,10.30
2019-04-22T00:56:47.471Z,9.70
2019-04-22T00:59:17.332Z,10.43
2019-04-22T01:01:55.812Z,9.13
2019-04-22T01:04:31.136Z,12.00
2019-04-22T01:06:51.624Z,10.10
2019-04-22T01:09:25.171Z,8.03
2019-04-22T01:11:56.301Z,8.07
2019-04-22T01:14:28.034Z,9.07
2019-04-22T01:17:04.156Z,8.10
2019-04-22T01:19:35.078Z,8.67
2019-04-22T01:21:58.353Z,7.70
2019-04-22T01:24:34.212Z,9.00
2019-04-22T01:26:58.135Z,8.17
2019-04-22T01:29:28.708Z,8.53
2019-04-22T01:31:49.161Z,9.23
2019-04-22T01:34:34.886Z,8.67
2019-04-22T01:37:07.636Z,9.37
2019-04-22T01:39:49.802Z,10.67
2019-04-22T01:42:16.990Z,10.80
2019-04-22T01:45:05.644Z,8.67
2019-04-22T01:47:26.227Z,10.20
2019-04-22T01:49:57.904Z,8.70
2019-04-22T01:52:20.427Z,8.80
2019-04-22T01:55:02.100Z,10.73
2019-04-22T01:57:33.872Z,9.73
2019-04-22T01:59:51.998Z,8.77
2019-04-22T02:02:33.784Z,8.90
2019-04-22T02:05:07.332Z,10.40
2019-04-22T02:07:34.454Z,8.10
2019-04-22T02:10:04.030Z,9.47
2019-04-22T02:15:06.653Z,8.97
2019-04-22T02:17:53.422Z,9.40
2019-04-22T02:20:13.627Z,9.27
2019-04-22T02:23:40.243Z,10.00
2019-04-22T02:25:56.111Z,11.47
2019-04-22T02:28:32.312Z,8.40
2019-04-22T02:31:13.929Z,8.70
2019-04-22T02:41:20.997Z,8.27
2019-04-22T02:43:47.412Z,8.07
2019-04-22T02:51:12.552Z,8.37
2019-04-22T02:54:17.262Z,7.77
2019-04-22T02:56:25.632Z,8.20
2019-04-22T02:58:55.162Z,7.93
2019-04-22T03:01:31.482Z,7.50
2019-04-22T03:06:24.097Z,7.30
2019-04-22T03:08:46.064Z,7.50
2019-04-22T03:11:18.977Z,7.60
2019-04-22T03:16:28.729Z,7.40
2019-04-22T03:18:59.461Z,7.70
2019-04-22T03:21:18.459Z,7.87
2019-04-22T03:52:14.792Z,10.43
2019-04-22T04:12:25.150Z,13.37
2019-04-22T04:14:58.087Z,11.43
2019-04-22T04:17:26.608Z,12.13
2019-04-22T04:22:37.554Z,10.70
2019-04-22T04:27:54.114Z,12.07
2019-04-22T04:30:05.555Z,10.73
2019-04-22T04:32:34.406Z,11.57
2019-04-22T04:40:18.319Z,9.77
2019-04-22T04:42:51.471Z,9.90
2019-04-22T04:50:10.159Z,7.77
2019-04-22T04:55:17.468Z,6.93
2019-04-22T04:57:57.463Z,7.83
2019-04-22T05:02:46.717Z,8.10
2019-04-22T05:13:01.676Z,7.20
2019-04-22T05:27:50.906Z,5.97
2019-04-22T05:32:55.745Z,5.17
2019-04-22T05:35:26.241Z,6.37
2019-04-22T05:38:03.107Z,5.87
2019-04-22T05:40:28.267Z,5.90
2019-04-22T05:42:56.542Z,6.43
2019-04-22T05:45:33.139Z,6.03
2019-04-22T05:50:29.358Z,5.80
2019-04-22T05:53:00.489Z,5.80
2019-04-22T05:55:37.334Z,5.10
2019-04-22T05:58:11.816Z,5.33
2019-04-22T06:01:07.190Z,4.87
2019-04-22T06:03:12.338Z,5.20
2019-04-22T06:05:43.322Z,5.27
2019-04-22T06:08:11.912Z,5.20
2019-04-22T06:10:48.697Z,5.10
2019-04-22T06:13:12.510Z,5.77
2019-04-22T06:15:49.177Z,5.37
2019-04-22T06:18:22.768Z,5.65
2019-04-22T06:20:59.526Z,5.30
2019-04-22T06:23:25.555Z,5.13
2019-04-22T06:26:04.891Z,5.50
2019-04-22T06:33:30.189Z,4.70
2019-04-22T06:36:03.389Z,5.05
2019-04-22T06:38:55.301Z,5.12
2019-04-22T06:43:38.498Z,5.17
2019-04-22T06:46:04.123Z,5.10
2019-04-22T06:48:50.872Z,4.58
2019-04-22T06:51:06.479Z,5.00
2019-04-22T06:53:43.999Z,4.65
2019-04-22T06:56:04.912Z,4.87
2019-04-22T06:58:39.503Z,4.85
2019-04-22T07:01:18.270Z,4.33
2019-04-22T07:03:47.620Z,4.25
2019-04-22T07:06:17.535Z,4.40
2019-04-22T07:11:12.515Z,3.90
2019-04-22T07:13:49.134Z,4.33
2019-04-22T07:16:18.587Z,4.33
2019-04-22T07:21:23.581Z,4.05
2019-04-22T07:24:02.645Z,3.92
2019-04-22T07:26:37.585Z,4.83
2019-04-22T07:28:56.421Z,3.98
2019-04-22T07:31:29.003Z,3.83
2019-04-22T07:34:04.459Z,3.33
2019-04-22T07:39:05.743Z,4.12
2019-04-22T07:41:34.548Z,3.67
2019-04-22T07:44:13.876Z,3.90
2019-04-22T07:51:36.641Z,3.83
2019-04-22T07:54:06.525Z,3.92
2019-04-22T07:56:40.956Z,3.75
2019-04-22T07:59:09.481Z,3.47
2019-04-22T08:01:55.983Z,3.98
2019-04-22T08:09:19.831Z,3.47
2019-04-22T08:11:53.784Z,3.72
2019-04-22T08:14:24.653Z,3.30
2019-04-22T08:16:51.290Z,3.27
2019-04-22T08:19:28.629Z,3.60
2019-04-22T08:21:52.091Z,3.58
2019-04-22T08:24:22.639Z,3.20
2019-04-22T08:26:58.137Z,3.65
2019-04-22T08:32:01.223Z,4.00
2019-04-22T08:34:29.963Z,3.22
2019-04-22T08:37:37.338Z,3.67
2019-04-22T08:39:48.567Z,2.92
2019-04-22T08:42:16.425Z,3.83
2019-04-22T08:45:08.141Z,3.50
2019-04-22T08:49:50.738Z,3.87
2019-04-22T08:52:16.555Z,3.20
2019-04-22T08:54:49.055Z,3.20
2019-04-22T08:57:20.452Z,3.00
2019-04-22T08:59:48.663Z,3.65
2019-04-22T09:02:24.297Z,2.80
2019-04-22T09:04:49.411Z,2.98
2019-04-22T09:09:54.099Z,3.25
2019-04-22T09:12:32.974Z,3.20
2019-04-22T09:15:04.963Z,3.40
2019-04-22T09:17:34.995Z,3.37
2019-04-22T09:19:56.637Z,3.10
2019-04-22T09:22:22.109Z,2.95
2019-04-22T09:25:13.445Z,3.42
2019-04-22T09:27:34.886Z,3.90
2019-04-22T09:30:01.259Z,3.58
2019-04-22T09:32:34.418Z,2.80
2019-04-22T09:35:17.333Z,2.75
2019-04-22T09:37:34.205Z,2.87
2019-04-22T09:40:12.250Z,3.55
2019-04-22T09:42:39.640Z,3.12
2019-04-22T09:45:08.281Z,3.40
2019-04-22T09:47:40.429Z,3.87
2019-04-22T09:50:08.195Z,4.83
2019-04-22T09:52:40.635Z,4.08
2019-04-22T09:55:12.531Z,4.50
2019-04-22T09:57:39.732Z,4.47
2019-04-22T10:00:15.257Z,4.53
2019-04-22T10:02:47.133Z,3.80
2019-04-22T10:07:44.911Z,4.90
2019-04-22T10:10:20.499Z,4.70
2019-04-22T10:12:50.404Z,3.67
2019-04-22T10:15:22.712Z,4.17
2019-04-22T10:17:54.529Z,3.87
2019-04-22T10:20:26.938Z,4.05
2019-04-22T10:22:51.928Z,3.92
2019-04-22T10:25:25.200Z,4.37
2019-04-22T10:28:03.340Z,4.42
2019-04-22T10:30:38.399Z,4.03
2019-04-22T10:33:03.316Z,3.83
2019-04-22T10:35:17.086Z,3.60
2019-04-22T10:37:43.001Z,3.75
2019-04-22T10:40:28.043Z,4.00
2019-04-22T10:42:59.022Z,3.75
2019-04-22T10:45:30.228Z,3.35
2019-04-22T10:48:01.633Z,3.15
2019-04-22T10:50:43.036Z,3.08
2019-04-22T10:53:15.413Z,3.40
2019-04-22T10:55:47.242Z,2.55
2019-04-22T10:58:17.054Z,2.95
2019-04-22T11:00:47.403Z,3.27
2019-04-22T11:03:18.144Z,3.35
2019-04-22T11:05:48.386Z,3.47
2019-04-22T11:08:27.249Z,2.83
2019-04-22T11:11:04.679Z,2.60
2019-04-22T11:13:24.148Z,3.05
2019-04-22T11:15:55.024Z,3.70
2019-04-22T11:18:25.358Z,3.77
2019-04-22T11:20:55.836Z,5.78
2019-04-22T11:23:27.049Z,3.55
2019-04-22T11:25:57.628Z,3.65
2019-04-22T11:28:27.723Z,3.25
2019-04-22T11:30:58.699Z,3.87
2019-04-22T11:33:28.353Z,3.00
2019-04-22T11:35:59.865Z,2.30
2019-04-22T11:38:30.860Z,2.27
2019-04-22T11:41:01.898Z,2.60
2019-04-22T11:43:32.351Z,2.02
2019-04-22T11:46:03.244Z,2.55
2019-04-22T11:48:33.971Z,2.50
2019-04-22T11:51:04.376Z,2.72
2019-04-22T11:53:34.590Z,2.15
2019-04-22T11:56:04.813Z,2.22
2019-04-22T11:58:35.411Z,2.58
2019-04-22T12:01:06.574Z,2.52
2019-04-22T12:03:37.690Z,2.65
2019-04-22T12:06:08.380Z,2.60
2019-04-22T12:08:39.684Z,2.52
2019-04-22T12:11:09.933Z,2.90
2019-04-22T12:13:42.020Z,2.55
2019-04-22T12:16:11.795Z,2.70
2019-04-22T12:18:42.982Z,2.33
2019-04-22T12:21:13.161Z,3.10
2019-04-22T12:23:43.426Z,2.92
2019-04-22T12:26:16.869Z,2.40
2019-04-22T12:28:44.758Z,2.10
2019-04-22T12:31:15.522Z,2.00
2019-04-22T12:33:45.402Z,2.20
2019-04-22T12:36:15.051Z,2.10
2019-04-22T12:38:47.475Z,2.22
2019-04-22T12:41:17.915Z,1.72
2019-04-22T12:43:49.209Z,2.00
2019-04-22T12:46:20.357Z,2.10
2019-04-22T12:48:50.105Z,1.95
2019-04-22T12:51:20.947Z,2.00
2019-04-22T12:53:50.935Z,2.10
2019-04-22T12:56:21.766Z,2.45
2019-04-22T12:58:51.758Z,2.08
2019-04-22T13:01:21.390Z,1.87
2019-04-22T13:03:52.072Z,2.10
2019-04-22T13:06:21.804Z,2.35
2019-04-22T13:08:52.447Z,2.20
2019-04-22T13:11:28.403Z,2.30
2019-04-22T13:13:54.688Z,2.08
2019-04-22T13:16:25.009Z,2.00
2019-04-22T13:19:02.033Z,1.98
2019-04-22T13:21:28.926Z,2.40
2019-04-22T13:23:59.267Z,1.95
2019-04-22T13:26:29.739Z,2.05
2019-04-22T13:29:00.936Z,2.10
2019-04-22T13:31:30.865Z,2.05
2019-04-22T13:34:03.557Z,2.08
2019-04-22T13:36:31.902Z,3.17
2019-04-22T13:39:02.792Z,2.15
2019-04-22T13:41:40.488Z,1.92
2019-04-22T13:44:03.636Z,1.70
2019-04-22T13:46:35.554Z,2.10
2019-04-22T13:49:38.259Z,2.35
2019-04-22T13:52:15.109Z,2.35
2019-04-22T13:56:56.860Z,2.27
2019-04-22T13:59:20.571Z,2.40
2019-04-22T14:01:52.792Z,2.10
2019-04-22T14:04:26.610Z,2.30
2019-04-22T14:06:56.836Z,2.00
2019-04-22T14:09:26.463Z,2.00
2019-04-22T14:12:00.108Z,2.22
2019-04-22T14:14:28.123Z,2.15
2019-04-22T14:16:58.797Z,2.08
2019-04-22T14:19:29.781Z,2.22
2019-04-22T14:21:59.777Z,2.47
2019-04-22T14:24:30.007Z,2.12
2019-04-22T14:27:16.159Z,2.37
2019-04-22T14:29:31.403Z,1.90
2019-04-22T14:32:10.571Z,2.10
2019-04-22T14:34:32.347Z,1.95
2019-04-22T14:37:01.915Z,2.52
2019-04-22T14:39:31.845Z,2.02
2019-04-22T14:42:27.069Z,1.85
2019-04-22T14:47:26.442Z,1.70
2019-04-22T14:50:02.444Z,1.90
2019-04-22T14:52:31.333Z,1.47
2019-04-22T14:54:50.801Z,1.70
2019-04-22T14:57:08.413Z,1.40
2019-04-22T14:59:37.941Z,1.50
2019-04-22T15:02:08.073Z,1.10
2019-04-22T15:04:42.877Z,1.45
2019-04-22T15:07:12.718Z,1.82
2019-04-22T15:09:42.307Z,1.60
2019-04-22T15:12:20.656Z,1.10
2019-04-22T15:14:43.628Z,1.32
2019-04-22T15:17:44.964Z,1.10
2019-04-22T15:20:32.388Z,1.20
2019-04-22T15:23:02.396Z,1.17
2019-04-22T15:25:32.543Z,1.30
2019-04-22T15:28:03.590Z,1.57
2019-04-22T15:30:33.284Z,1.30
2019-04-22T15:33:03.344Z,1.40
2019-04-22T15:35:33.545Z,1.35
2019-04-22T15:38:04.490Z,1.60
2019-04-22T15:40:34.581Z,1.10
2019-04-22T15:43:04.725Z,1.35
2019-04-22T15:45:34.954Z,1.40
2019-04-22T15:48:06.024Z,1.42
2019-04-22T15:50:36.852Z,1.47
2019-04-22T15:53:07.672Z,1.60
2019-04-22T15:55:38.800Z,1.80
2019-04-22T15:58:10.006Z,13.03
2019-04-22T16:00:51.593Z,1.80
2019-04-22T16:03:12.472Z,1.92
2019-04-22T16:05:43.908Z,1.90
2019-04-22T16:08:14.853Z,1.40
2019-04-22T16:10:46.012Z,1.82
2019-04-22T16:13:22.420Z,1.77
2019-04-22T16:15:46.957Z,1.80
2019-04-22T16:18:18.030Z,1.50
2019-04-22T16:20:48.197Z,1.40
2019-04-22T16:23:34.204Z,1.92
2019-04-22T16:26:24.362Z,2.00
2019-04-22T16:28:56.288Z,1.90
2019-04-22T16:31:25.158Z,1.90
2019-04-22T16:33:56.211Z,1.90
2019-04-22T16:36:26.948Z,2.10
2019-04-22T16:38:57.088Z,2.30
2019-04-22T16:41:26.664Z,2.00
2019-04-22T16:43:56.340Z,2.30
2019-04-22T16:46:25.896Z,2.00
2019-04-22T16:48:55.975Z,2.10
2019-04-22T16:51:27.639Z,2.08
2019-04-22T16:53:58.010Z,2.00
2019-04-22T16:56:30.499Z,2.30
2019-04-22T16:58:59.027Z,2.10
2019-04-22T17:01:48.502Z,1.90
2019-04-22T17:04:30.710Z,1.90
2019-04-22T17:07:01.653Z,2.08
2019-04-22T17:09:32.042Z,2.33
2019-04-22T17:12:01.910Z,2.10
2019-04-22T17:14:35.991Z,1.80
2019-04-22T17:17:02.572Z,2.02
2019-04-22T17:19:33.309Z,1.90
2019-04-22T17:22:03.683Z,2.35
2019-04-22T17:24:33.279Z,2.02
2019-04-22T17:27:04.348Z,2.00
2019-04-22T17:29:34.785Z,1.87
2019-04-22T17:32:10.123Z,2.45
2019-04-22T17:34:36.212Z,1.82
2019-04-22T17:37:12.744Z,1.80
2019-04-22T17:39:49.162Z,2.02
2019-04-22T17:42:25.344Z,2.10
2019-04-22T17:45:22.323Z,2.15
2019-04-22T17:48:12.805Z,1.95
2019-04-22T17:50:46.691Z,1.95
2019-04-22T17:53:21.265Z,2.00
2019-04-22T17:55:54.082Z,2.40
2019-04-22T17:58:20.791Z,2.12
2019-04-22T18:00:47.276Z,1.70
2019-04-22T18:03:08.787Z,2.00
2019-04-22T18:05:40.953Z,1.90
2019-04-22T18:08:20.454Z,2.20
2019-04-22T18:10:54.253Z,2.10
2019-04-22T18:13:31.879Z,2.20
2019-04-22T18:15:53.045Z,2.10
2019-04-22T18:18:32.900Z,2.10
2019-04-22T18:20:52.007Z,2.22
2019-04-22T18:23:14.520Z,2.30
2019-04-22T18:26:00.493Z,2.17
2019-04-22T18:28:41.632Z,2.40
2019-04-22T18:30:58.705Z,2.80
2019-04-22T18:33:33.230Z,2.35
2019-04-22T18:36:05.434Z,2.72
2019-04-22T18:38:49.733Z,2.12
2019-04-22T18:41:04.769Z,2.10
2019-04-22T18:43:42.455Z,2.92
2019-04-22T18:46:14.519Z,2.75
2019-04-22T18:48:48.044Z,2.45
2019-04-22T18:51:24.719Z,2.60
2019-04-22T18:54:14.824Z,2.08
2019-04-22T18:56:45.197Z,2.40
2019-04-22T18:59:07.738Z,2.33
2019-04-22T19:01:28.323Z,2.40
2019-04-22T19:04:05.775Z,2.45
2019-04-22T19:06:56.275Z,2.62
2019-04-22T19:09:29.567Z,2.37
2019-04-22T19:12:11.769Z,2.12
2019-04-22T19:14:33.498Z,2.50
2019-04-22T19:17:12.164Z,2.45
2019-04-22T19:19:35.068Z,2.55
2019-04-22T19:21:57.807Z,2.70
2019-04-22T19:24:28.997Z,2.30
2019-04-22T19:27:02.332Z,2.85
2019-04-22T19:29:39.770Z,2.55
2019-04-22T19:32:06.805Z,2.83
2019-04-22T19:34:36.736Z,2.90
2019-04-22T19:37:07.063Z,2.80
2019-04-22T19:39:40.931Z,3.33
2019-04-22T19:42:20.616Z,3.60
2019-04-22T19:44:46.840Z,3.62
2019-04-22T19:47:28.517Z,3.30
2019-04-22T19:49:55.886Z,3.90
2019-04-22T19:52:19.354Z,2.98
2019-04-22T19:54:46.746Z,3.30
2019-04-22T19:57:21.363Z,3.60
2019-04-22T19:59:51.599Z,3.90
2019-04-22T20:02:51.502Z,3.55
2019-04-22T20:05:43.614Z,3.13
2019-04-22T20:08:14.519Z,3.97
2019-04-22T20:10:44.409Z,3.03
2019-04-22T20:13:19.960Z,2.73
2019-04-22T20:15:37.058Z,3.20
2019-04-22T20:18:29.681Z,3.10
2019-04-22T20:20:52.872Z,3.90
2019-04-22T20:23:14.427Z,4.27
2019-04-22T20:25:46.355Z,3.97
2019-04-22T20:28:25.664Z,4.43
2019-04-22T20:30:55.482Z,4.47
2019-04-22T20:33:29.507Z,4.63
2019-04-22T20:35:56.978Z,5.27
2019-04-22T20:38:25.944Z,4.97
2019-04-22T20:40:55.417Z,5.03
2019-04-22T20:43:35.628Z,5.23
2019-04-22T20:46:05.777Z,5.23
2019-04-22T20:48:39.131Z,4.50
2019-04-22T20:51:04.143Z,5.60
2019-04-22T20:53:36.450Z,5.73
2019-04-22T20:56:08.408Z,5.87
2019-04-22T20:58:43.181Z,5.43
2019-04-22T21:01:01.303Z,5.87
2019-04-22T21:03:33.356Z,6.40
2019-04-22T21:06:06.872Z,6.27
2019-04-22T21:08:42.320Z,6.60
2019-04-22T21:11:12.380Z,6.07
2019-04-22T21:13:46.612Z,6.27
2019-04-22T21:16:22.379Z,7.10
2019-04-22T21:18:44.174Z,6.40
2019-04-22T21:21:29.652Z,6.73
2019-04-22T21:23:47.693Z,6.40
2019-04-22T21:26:24.355Z,6.93
2019-04-22T21:28:53.210Z,7.00
2019-04-22T21:31:33.706Z,6.90
2019-04-22T21:33:59.143Z,6.67
2019-04-22T21:36:48.084Z,6.77
2019-04-22T21:39:02.548Z,6.57
2019-04-22T21:41:30.685Z,6.30
2019-04-22T21:44:05.500Z,6.17
2019-04-22T21:46:33.828Z,6.83
2019-04-22T21:49:06.718Z,6.03
2019-04-22T21:51:43.493Z,6.60
2019-04-22T21:54:15.796Z,6.40
2019-04-22T21:57:07.466Z,7.10
2019-04-22T21:59:26.090Z,6.23
2019-04-22T22:02:07.237Z,5.37
2019-04-22T22:04:26.711Z,6.23
2019-04-22T22:06:52.530Z,6.97
2019-04-22T22:09:33.179Z,7.20
2019-04-22T22:11:59.749Z,6.97
2019-04-22T22:14:33.566Z,6.40
2019-04-22T22:17:00.203Z,6.77
2019-04-22T22:19:38.187Z,5.87
2019-04-22T22:22:26.720Z,6.70
2019-04-22T22:24:56.456Z,6.47
2019-04-22T22:27:17.202Z,7.37
2019-04-22T22:30:15.206Z,6.93
2019-04-22T22:32:19.963Z,6.13
2019-04-22T22:34:46.317Z,6.77
2019-04-22T22:37:06.387Z,7.50
2019-04-22T22:39:39.241Z,6.77
2019-04-22T22:41:57.630Z,6.43
2019-04-22T22:44:35.754Z,6.60
2019-04-22T22:47:16.594Z,6.87
2019-04-22T22:49:52.864Z,6.50
2019-04-22T22:52:44.847Z,7.40
2019-04-22T22:54:54.137Z,6.03
2019-04-22T22:57:28.989Z,6.43
2019-04-22T22:59:57.675Z,7.03
2019-04-22T23:02:22.915Z,6.60
2019-04-22T23:04:57.756Z,6.57
2019-04-22T23:07:46.321Z,6.83
2019-04-22T23:10:00.251Z,6.63
2019-04-22T23:12:46.435Z,6.17
2019-04-22T23:15:00.452Z,6.10
2019-04-22T23:17:18.774Z,6.03
2019-04-22T23:19:48.756Z,6.27
2019-04-22T23:22:23.414Z,6.70
2019-04-22T23:25:14.050Z,6.30
2019-04-22T23:28:03.949Z,6.43
2019-04-22T23:30:56.875Z,6.57
2019-04-22T23:33:43.831Z,6.83
2019-04-22T23:36:26.459Z,6.97
2019-04-22T23:39:12.190Z,7.60
2019-04-22T23:42:39.718Z,6.50
2019-04-22T23:44:14.284Z,6.67
2019-04-22T23:46:41.157Z,6.10
2019-04-22T23:49:18.077Z,6.13
2019-04-22T23:51:55.662Z,6.50
2019-04-22T23:54:29.107Z,6.20
2019-04-22T23:56:47.992Z,6.80
2019-04-22T23:59:38.204Z,5.93
